sensor_id;sensor_type;location;lat;lon;timestamp;P1;durP1;ratioP1;P2;durP2;ratioP2
49730;SDS011;35622;52.008;5.426;2023-05-07T00:00:35;11.85;;;10.15;;
49730;SDS011;35622;52.008;5.426;2023-05-07T00:03:01;15.02;;;11.43;;
49730;SDS011;35622;52.008;5.426;2023-05-07T00:05:27;14.95;;;10.80;;
49730;SDS011;35622;52.008;5.426;2023-05-07T00:07:53;12.52;;;11.32;;
49730;SDS011;35622;52.008;5.426;2023-05-07T00:10:18;15.23;;;11.68;;
49730;SDS011;35622;52.008;5.426;2023-05-07T00:12:44;13.35;;;11.40;;
49730;SDS011;35622;52.008;5.426;2023-05-07T00:15:10;12.18;;;10.85;;
49730;SDS011;35622;52.008;5.426;2023-05-07T00:17:35;15.05;;;11.70;;
49730;SDS011;35622;52.008;5.426;2023-05-07T00:20:01;12.25;;;10.25;;
49730;SDS011;35622;52.008;5.426;2023-05-07T00:22:28;11.52;;;10.18;;
49730;SDS011;35622;52.008;5.426;2023-05-07T00:24:55;13.85;;;10.25;;
49730;SDS011;35622;52.008;5.426;2023-05-07T00:27:20;13.10;;;9.95;;
49730;SDS011;35622;52.008;5.426;2023-05-07T00:29:46;11.57;;;9.93;;
49730;SDS011;35622;52.008;5.426;2023-05-07T00:32:12;10.90;;;8.77;;
49730;SDS011;35622;52.008;5.426;2023-05-07T00:34:37;11.35;;;9.80;;
49730;SDS011;35622;52.008;5.426;2023-05-07T00:37:04;13.32;;;9.75;;
49730;SDS011;35622;52.008;5.426;2023-05-07T00:39:30;13.50;;;10.05;;
49730;SDS011;35622;52.008;5.426;2023-05-07T00:41:55;11.82;;;10.00;;
49730;SDS011;35622;52.008;5.426;2023-05-07T00:44:21;11.07;;;9.88;;
49730;SDS011;35622;52.008;5.426;2023-05-07T00:46:47;13.45;;;10.10;;
49730;SDS011;35622;52.008;5.426;2023-05-07T00:49:14;11.60;;;8.98;;
49730;SDS011;35622;52.008;5.426;2023-05-07T00:51:40;11.80;;;9.70;;
49730;SDS011;35622;52.008;5.426;2023-05-07T00:54:06;11.38;;;9.50;;
49730;SDS011;35622;52.008;5.426;2023-05-07T00:56:33;12.15;;;10.07;;
49730;SDS011;35622;52.008;5.426;2023-05-07T00:59:00;14.57;;;10.20;;
49730;SDS011;35622;52.008;5.426;2023-05-07T01:01:28;13.52;;;10.57;;
49730;SDS011;35622;52.008;5.426;2023-05-07T01:03:54;15.68;;;10.68;;
49730;SDS011;35622;52.008;5.426;2023-05-07T01:06:20;11.40;;;9.55;;
49730;SDS011;35622;52.008;5.426;2023-05-07T01:08:49;11.15;;;9.55;;
49730;SDS011;35622;52.008;5.426;2023-05-07T01:11:17;12.02;;;9.02;;
49730;SDS011;35622;52.008;5.426;2023-05-07T01:13:45;10.70;;;9.23;;
49730;SDS011;35622;52.008;5.426;2023-05-07T01:16:11;13.02;;;9.25;;
49730;SDS011;35622;52.008;5.426;2023-05-07T01:18:37;11.10;;;7.88;;
49730;SDS011;35622;52.008;5.426;2023-05-07T01:21:03;10.35;;;8.52;;
49730;SDS011;35622;52.008;5.426;2023-05-07T01:23:30;12.10;;;9.45;;
49730;SDS011;35622;52.008;5.426;2023-05-07T01:25:55;13.00;;;8.45;;
49730;SDS011;35622;52.008;5.426;2023-05-07T01:28:21;12.52;;;9.35;;
49730;SDS011;35622;52.008;5.426;2023-05-07T01:30:48;12.38;;;8.73;;
49730;SDS011;35622;52.008;5.426;2023-05-07T01:33:18;10.23;;;8.85;;
49730;SDS011;35622;52.008;5.426;2023-05-07T01:35:50;12.45;;;8.55;;
49730;SDS011;35622;52.008;5.426;2023-05-07T01:38:18;12.82;;;8.68;;
49730;SDS011;35622;52.008;5.426;2023-05-07T01:40:45;9.35;;;8.35;;
49730;SDS011;35622;52.008;5.426;2023-05-07T01:43:11;10.75;;;8.95;;
49730;SDS011;35622;52.008;5.426;2023-05-07T01:45:37;11.07;;;9.00;;
49730;SDS011;35622;52.008;5.426;2023-05-07T01:48:03;11.57;;;8.43;;
49730;SDS011;35622;52.008;5.426;2023-05-07T01:50:30;10.75;;;8.88;;
49730;SDS011;35622;52.008;5.426;2023-05-07T01:52:56;10.85;;;8.63;;
49730;SDS011;35622;52.008;5.426;2023-05-07T01:55:22;12.52;;;8.98;;
49730;SDS011;35622;52.008;5.426;2023-05-07T01:57:48;11.52;;;8.98;;
49730;SDS011;35622;52.008;5.426;2023-05-07T02:00:14;9.57;;;7.82;;
49730;SDS011;35622;52.008;5.426;2023-05-07T02:02:40;12.20;;;8.25;;
49730;SDS011;35622;52.008;5.426;2023-05-07T02:05:05;9.80;;;7.97;;
49730;SDS011;35622;52.008;5.426;2023-05-07T02:07:37;10.93;;;8.52;;
49730;SDS011;35622;52.008;5.426;2023-05-07T02:11:03;9.20;;;8.00;;
49730;SDS011;35622;52.008;5.426;2023-05-07T02:21:41;10.50;;;8.63;;
49730;SDS011;35622;52.008;5.426;2023-05-07T02:27:57;11.82;;;8.68;;
49730;SDS011;35622;52.008;5.426;2023-05-07T02:30:24;12.45;;;9.18;;
49730;SDS011;35622;52.008;5.426;2023-05-07T02:32:50;10.93;;;7.97;;
49730;SDS011;35622;52.008;5.426;2023-05-07T02:35:15;11.63;;;9.25;;
49730;SDS011;35622;52.008;5.426;2023-05-07T02:37:41;10.75;;;9.23;;
49730;SDS011;35622;52.008;5.426;2023-05-07T02:40:07;13.07;;;10.27;;
49730;SDS011;35622;52.008;5.426;2023-05-07T02:42:33;11.35;;;10.10;;
49730;SDS011;35622;52.008;5.426;2023-05-07T02:44:59;10.63;;;9.02;;
49730;SDS011;35622;52.008;5.426;2023-05-07T02:47:24;11.88;;;9.23;;
49730;SDS011;35622;52.008;5.426;2023-05-07T02:49:54;11.07;;;8.73;;
49730;SDS011;35622;52.008;5.426;2023-05-07T02:52:20;12.95;;;9.73;;
49730;SDS011;35622;52.008;5.426;2023-05-07T02:54:46;12.88;;;9.55;;
49730;SDS011;35622;52.008;5.426;2023-05-07T02:57:11;13.45;;;10.40;;
49730;SDS011;35622;52.008;5.426;2023-05-07T02:59:37;12.10;;;10.20;;
49730;SDS011;35622;52.008;5.426;2023-05-07T03:02:03;11.27;;;9.52;;
49730;SDS011;35622;52.008;5.426;2023-05-07T03:04:28;12.52;;;10.68;;
49730;SDS011;35622;52.008;5.426;2023-05-07T03:06:54;12.48;;;10.23;;
49730;SDS011;35622;52.008;5.426;2023-05-07T03:09:19;13.23;;;10.40;;
49730;SDS011;35622;52.008;5.426;2023-05-07T03:11:45;11.68;;;10.07;;
49730;SDS011;35622;52.008;5.426;2023-05-07T03:14:10;13.75;;;10.43;;
49730;SDS011;35622;52.008;5.426;2023-05-07T03:16:36;15.88;;;11.18;;
49730;SDS011;35622;52.008;5.426;2023-05-07T03:19:02;13.57;;;11.18;;
49730;SDS011;35622;52.008;5.426;2023-05-07T03:21:28;13.27;;;10.90;;
49730;SDS011;35622;52.008;5.426;2023-05-07T03:23:53;11.40;;;9.38;;
49730;SDS011;35622;52.008;5.426;2023-05-07T03:26:19;11.68;;;9.88;;
49730;SDS011;35622;52.008;5.426;2023-05-07T03:28:45;12.50;;;10.10;;
49730;SDS011;35622;52.008;5.426;2023-05-07T03:31:10;16.33;;;10.90;;
49730;SDS011;35622;52.008;5.426;2023-05-07T03:33:38;12.70;;;10.82;;
49730;SDS011;35622;52.008;5.426;2023-05-07T03:36:14;12.48;;;10.55;;
49730;SDS011;35622;52.008;5.426;2023-05-07T03:38:40;12.32;;;10.18;;
49730;SDS011;35622;52.008;5.426;2023-05-07T03:41:05;11.55;;;9.63;;
49730;SDS011;35622;52.008;5.426;2023-05-07T03:43:31;13.80;;;9.80;;
49730;SDS011;35622;52.008;5.426;2023-05-07T03:45:57;14.00;;;10.75;;
49730;SDS011;35622;52.008;5.426;2023-05-07T03:48:22;11.77;;;10.35;;
49730;SDS011;35622;52.008;5.426;2023-05-07T03:50:48;14.18;;;11.68;;
49730;SDS011;35622;52.008;5.426;2023-05-07T03:53:14;15.90;;;10.95;;
49730;SDS011;35622;52.008;5.426;2023-05-07T03:55:40;11.85;;;10.55;;
49730;SDS011;35622;52.008;5.426;2023-05-07T03:58:05;14.13;;;10.50;;
49730;SDS011;35622;52.008;5.426;2023-05-07T04:00:31;15.30;;;10.50;;
49730;SDS011;35622;52.008;5.426;2023-05-07T04:03:02;13.18;;;10.52;;
49730;SDS011;35622;52.008;5.426;2023-05-07T04:05:28;14.32;;;11.02;;
49730;SDS011;35622;52.008;5.426;2023-05-07T04:07:54;13.32;;;11.93;;
49730;SDS011;35622;52.008;5.426;2023-05-07T04:10:19;14.13;;;11.18;;
49730;SDS011;35622;52.008;5.426;2023-05-07T04:12:45;12.75;;;11.25;;
49730;SDS011;35622;52.008;5.426;2023-05-07T04:15:11;13.90;;;11.73;;
49730;SDS011;35622;52.008;5.426;2023-05-07T04:17:36;13.82;;;11.38;;
49730;SDS011;35622;52.008;5.426;2023-05-07T04:20:02;15.85;;;12.38;;
49730;SDS011;35622;52.008;5.426;2023-05-07T04:22:28;13.38;;;11.50;;
49730;SDS011;35622;52.008;5.426;2023-05-07T04:24:53;13.57;;;11.10;;
49730;SDS011;35622;52.008;5.426;2023-05-07T04:27:19;14.85;;;11.38;;
49730;SDS011;35622;52.008;5.426;2023-05-07T04:29:45;13.65;;;11.70;;
49730;SDS011;35622;52.008;5.426;2023-05-07T04:32:12;13.85;;;11.65;;
49730;SDS011;35622;52.008;5.426;2023-05-07T04:34:38;15.40;;;11.77;;
49730;SDS011;35622;52.008;5.426;2023-05-07T04:37:03;16.75;;;11.77;;
49730;SDS011;35622;52.008;5.426;2023-05-07T04:39:29;17.13;;;12.60;;
49730;SDS011;35622;52.008;5.426;2023-05-07T04:41:55;15.02;;;13.15;;
49730;SDS011;35622;52.008;5.426;2023-05-07T04:44:20;16.25;;;13.52;;
49730;SDS011;35622;52.008;5.426;2023-05-07T04:46:46;14.95;;;12.85;;
49730;SDS011;35622;52.008;5.426;2023-05-07T04:49:11;16.75;;;13.52;;
49730;SDS011;35622;52.008;5.426;2023-05-07T04:51:37;13.88;;;11.95;;
49730;SDS011;35622;52.008;5.426;2023-05-07T04:54:03;14.68;;;12.13;;
49730;SDS011;35622;52.008;5.426;2023-05-07T04:56:29;15.45;;;12.90;;
49730;SDS011;35622;52.008;5.426;2023-05-07T04:58:54;15.98;;;12.25;;
49730;SDS011;35622;52.008;5.426;2023-05-07T05:01:20;15.02;;;12.32;;
49730;SDS011;35622;52.008;5.426;2023-05-07T05:03:46;13.57;;;10.95;;
49730;SDS011;35622;52.008;5.426;2023-05-07T05:06:11;13.75;;;11.52;;
49730;SDS011;35622;52.008;5.426;2023-05-07T05:08:37;13.93;;;12.43;;
49730;SDS011;35622;52.008;5.426;2023-05-07T05:11:02;15.00;;;13.15;;
49730;SDS011;35622;52.008;5.426;2023-05-07T05:13:28;15.48;;;12.60;;
49730;SDS011;35622;52.008;5.426;2023-05-07T05:15:55;14.05;;;11.98;;
49730;SDS011;35622;52.008;5.426;2023-05-07T05:18:21;18.90;;;13.63;;
49730;SDS011;35622;52.008;5.426;2023-05-07T05:20:46;14.25;;;11.40;;
49730;SDS011;35622;52.008;5.426;2023-05-07T05:23:12;14.48;;;12.73;;
49730;SDS011;35622;52.008;5.426;2023-05-07T05:25:37;15.70;;;12.57;;
49730;SDS011;35622;52.008;5.426;2023-05-07T05:28:04;14.25;;;12.75;;
49730;SDS011;35622;52.008;5.426;2023-05-07T05:30:29;18.42;;;14.35;;
49730;SDS011;35622;52.008;5.426;2023-05-07T05:32:55;15.75;;;13.70;;
49730;SDS011;35622;52.008;5.426;2023-05-07T05:35:20;16.30;;;14.43;;
49730;SDS011;35622;52.008;5.426;2023-05-07T05:37:46;14.65;;;13.15;;
49730;SDS011;35622;52.008;5.426;2023-05-07T05:40:13;17.85;;;15.10;;
49730;SDS011;35622;52.008;5.426;2023-05-07T05:42:38;15.18;;;13.55;;
49730;SDS011;35622;52.008;5.426;2023-05-07T05:45:04;16.63;;;14.85;;
49730;SDS011;35622;52.008;5.426;2023-05-07T05:47:30;17.85;;;15.45;;
49730;SDS011;35622;52.008;5.426;2023-05-07T05:49:56;15.27;;;13.68;;
49730;SDS011;35622;52.008;5.426;2023-05-07T05:52:21;18.58;;;15.38;;
49730;SDS011;35622;52.008;5.426;2023-05-07T05:54:48;19.23;;;16.73;;
49730;SDS011;35622;52.008;5.426;2023-05-07T05:57:14;17.90;;;15.68;;
49730;SDS011;35622;52.008;5.426;2023-05-07T05:59:40;18.20;;;15.13;;
49730;SDS011;35622;52.008;5.426;2023-05-07T06:02:06;20.25;;;16.52;;
49730;SDS011;35622;52.008;5.426;2023-05-07T06:04:31;18.60;;;15.52;;
49730;SDS011;35622;52.008;5.426;2023-05-07T06:06:57;20.40;;;16.75;;
49730;SDS011;35622;52.008;5.426;2023-05-07T06:09:22;20.20;;;16.42;;
49730;SDS011;35622;52.008;5.426;2023-05-07T06:11:48;22.35;;;18.25;;
49730;SDS011;35622;52.008;5.426;2023-05-07T06:14:14;22.10;;;17.25;;
49730;SDS011;35622;52.008;5.426;2023-05-07T06:16:40;16.42;;;14.73;;
49730;SDS011;35622;52.008;5.426;2023-05-07T06:19:06;20.20;;;16.75;;
49730;SDS011;35622;52.008;5.426;2023-05-07T06:21:32;18.27;;;15.55;;
49730;SDS011;35622;52.008;5.426;2023-05-07T06:23:58;18.67;;;16.67;;
49730;SDS011;35622;52.008;5.426;2023-05-07T06:26:23;19.30;;;16.98;;
49730;SDS011;35622;52.008;5.426;2023-05-07T06:28:49;21.05;;;17.85;;
49730;SDS011;35622;52.008;5.426;2023-05-07T06:31:15;19.70;;;17.05;;
49730;SDS011;35622;52.008;5.426;2023-05-07T06:33:43;19.38;;;17.10;;
49730;SDS011;35622;52.008;5.426;2023-05-07T06:36:09;18.98;;;16.08;;
49730;SDS011;35622;52.008;5.426;2023-05-07T06:38:35;19.75;;;17.35;;
49730;SDS011;35622;52.008;5.426;2023-05-07T06:41:01;21.00;;;17.23;;
49730;SDS011;35622;52.008;5.426;2023-05-07T06:43:26;19.77;;;17.20;;
49730;SDS011;35622;52.008;5.426;2023-05-07T06:45:52;21.27;;;17.20;;
49730;SDS011;35622;52.008;5.426;2023-05-07T06:48:17;24.45;;;17.77;;
49730;SDS011;35622;52.008;5.426;2023-05-07T06:50:43;20.67;;;17.05;;
49730;SDS011;35622;52.008;5.426;2023-05-07T06:53:08;21.17;;;16.73;;
49730;SDS011;35622;52.008;5.426;2023-05-07T06:55:34;19.77;;;17.25;;
49730;SDS011;35622;52.008;5.426;2023-05-07T06:58:00;19.30;;;15.07;;
49730;SDS011;35622;52.008;5.426;2023-05-07T07:00:29;18.60;;;15.10;;
49730;SDS011;35622;52.008;5.426;2023-05-07T07:02:55;18.05;;;15.25;;
49730;SDS011;35622;52.008;5.426;2023-05-07T07:05:21;19.48;;;15.27;;
49730;SDS011;35622;52.008;5.426;2023-05-07T07:07:47;20.02;;;15.90;;
49730;SDS011;35622;52.008;5.426;2023-05-07T07:10:20;19.90;;;16.52;;
49730;SDS011;35622;52.008;5.426;2023-05-07T07:12:46;20.13;;;16.35;;
49730;SDS011;35622;52.008;5.426;2023-05-07T07:15:15;21.05;;;16.75;;
49730;SDS011;35622;52.008;5.426;2023-05-07T07:17:41;19.25;;;16.40;;
49730;SDS011;35622;52.008;5.426;2023-05-07T07:20:07;19.10;;;15.73;;
49730;SDS011;35622;52.008;5.426;2023-05-07T07:22:33;18.33;;;15.77;;
49730;SDS011;35622;52.008;5.426;2023-05-07T07:24:58;15.77;;;14.18;;
49730;SDS011;35622;52.008;5.426;2023-05-07T07:27:24;16.55;;;14.55;;
49730;SDS011;35622;52.008;5.426;2023-05-07T07:29:50;16.42;;;14.63;;
49730;SDS011;35622;52.008;5.426;2023-05-07T07:32:15;17.58;;;15.00;;
49730;SDS011;35622;52.008;5.426;2023-05-07T07:34:41;16.90;;;15.10;;
49730;SDS011;35622;52.008;5.426;2023-05-07T07:37:06;18.42;;;15.18;;
49730;SDS011;35622;52.008;5.426;2023-05-07T07:39:32;16.48;;;14.10;;
49730;SDS011;35622;52.008;5.426;2023-05-07T07:41:58;15.05;;;12.88;;
49730;SDS011;35622;52.008;5.426;2023-05-07T07:44:24;18.15;;;13.93;;
49730;SDS011;35622;52.008;5.426;2023-05-07T07:46:50;15.95;;;14.30;;
49730;SDS011;35622;52.008;5.426;2023-05-07T07:49:15;14.65;;;12.73;;
49730;SDS011;35622;52.008;5.426;2023-05-07T07:51:41;13.73;;;11.75;;
49730;SDS011;35622;52.008;5.426;2023-05-07T07:54:07;13.25;;;11.02;;
49730;SDS011;35622;52.008;5.426;2023-05-07T07:56:33;13.65;;;12.15;;
49730;SDS011;35622;52.008;5.426;2023-05-07T07:58:59;19.35;;;14.00;;
49730;SDS011;35622;52.008;5.426;2023-05-07T08:01:25;13.77;;;11.75;;
49730;SDS011;35622;52.008;5.426;2023-05-07T08:03:50;17.15;;;13.02;;
49730;SDS011;35622;52.008;5.426;2023-05-07T08:06:16;17.10;;;13.23;;
49730;SDS011;35622;52.008;5.426;2023-05-07T08:08:42;18.02;;;13.73;;
49730;SDS011;35622;52.008;5.426;2023-05-07T08:11:07;15.88;;;12.82;;
49730;SDS011;35622;52.008;5.426;2023-05-07T08:13:33;14.68;;;13.18;;
49730;SDS011;35622;52.008;5.426;2023-05-07T08:15:59;16.20;;;14.20;;
49730;SDS011;35622;52.008;5.426;2023-05-07T08:18:25;15.93;;;14.25;;
49730;SDS011;35622;52.008;5.426;2023-05-07T08:20:50;18.55;;;15.20;;
49730;SDS011;35622;52.008;5.426;2023-05-07T08:23:16;20.83;;;16.42;;
49730;SDS011;35622;52.008;5.426;2023-05-07T08:25:42;21.55;;;16.83;;
49730;SDS011;35622;52.008;5.426;2023-05-07T08:28:07;15.95;;;13.63;;
49730;SDS011;35622;52.008;5.426;2023-05-07T08:30:33;19.77;;;16.15;;
49730;SDS011;35622;52.008;5.426;2023-05-07T08:32:59;17.95;;;15.15;;
49730;SDS011;35622;52.008;5.426;2023-05-07T08:35:25;19.75;;;15.48;;
49730;SDS011;35622;52.008;5.426;2023-05-07T08:37:52;19.67;;;15.90;;
49730;SDS011;35622;52.008;5.426;2023-05-07T08:40:17;17.00;;;14.50;;
49730;SDS011;35622;52.008;5.426;2023-05-07T08:42:43;18.55;;;15.63;;
49730;SDS011;35622;52.008;5.426;2023-05-07T08:45:09;19.05;;;14.88;;
49730;SDS011;35622;52.008;5.426;2023-05-07T08:47:50;16.35;;;14.50;;
49730;SDS011;35622;52.008;5.426;2023-05-07T08:50:20;17.95;;;15.45;;
49730;SDS011;35622;52.008;5.426;2023-05-07T08:52:46;17.60;;;14.38;;
49730;SDS011;35622;52.008;5.426;2023-05-07T08:55:12;18.20;;;15.00;;
49730;SDS011;35622;52.008;5.426;2023-05-07T08:57:38;17.63;;;14.70;;
49730;SDS011;35622;52.008;5.426;2023-05-07T09:00:04;15.30;;;13.68;;
49730;SDS011;35622;52.008;5.426;2023-05-07T09:02:32;14.35;;;12.68;;
49730;SDS011;35622;52.008;5.426;2023-05-07T09:04:57;16.90;;;14.68;;
49730;SDS011;35622;52.008;5.426;2023-05-07T09:07:23;15.20;;;13.60;;
49730;SDS011;35622;52.008;5.426;2023-05-07T09:09:49;17.75;;;14.57;;
49730;SDS011;35622;52.008;5.426;2023-05-07T09:12:17;15.32;;;13.30;;
49730;SDS011;35622;52.008;5.426;2023-05-07T09:14:45;15.18;;;13.55;;
49730;SDS011;35622;52.008;5.426;2023-05-07T09:17:11;15.23;;;13.70;;
49730;SDS011;35622;52.008;5.426;2023-05-07T09:19:36;15.57;;;13.98;;
49730;SDS011;35622;52.008;5.426;2023-05-07T09:22:02;15.57;;;12.82;;
49730;SDS011;35622;52.008;5.426;2023-05-07T09:24:29;15.35;;;13.80;;
49730;SDS011;35622;52.008;5.426;2023-05-07T09:26:59;15.82;;;14.20;;
49730;SDS011;35622;52.008;5.426;2023-05-07T09:29:26;16.23;;;13.52;;
49730;SDS011;35622;52.008;5.426;2023-05-07T09:31:54;14.23;;;12.77;;
49730;SDS011;35622;52.008;5.426;2023-05-07T09:34:19;12.45;;;10.45;;
49730;SDS011;35622;52.008;5.426;2023-05-07T09:36:45;13.93;;;12.50;;
49730;SDS011;35622;52.008;5.426;2023-05-07T09:39:11;14.40;;;12.90;;
49730;SDS011;35622;52.008;5.426;2023-05-07T09:41:44;15.73;;;14.07;;
49730;SDS011;35622;52.008;5.426;2023-05-07T09:44:11;13.45;;;11.85;;
49730;SDS011;35622;52.008;5.426;2023-05-07T09:46:38;16.30;;;13.57;;
49730;SDS011;35622;52.008;5.426;2023-05-07T09:49:06;15.00;;;12.70;;
49730;SDS011;35622;52.008;5.426;2023-05-07T09:51:43;14.77;;;13.27;;
49730;SDS011;35622;52.008;5.426;2023-05-07T09:54:13;16.13;;;13.52;;
49730;SDS011;35622;52.008;5.426;2023-05-07T09:56:39;15.57;;;13.93;;
49730;SDS011;35622;52.008;5.426;2023-05-07T09:59:07;12.10;;;10.82;;
49730;SDS011;35622;52.008;5.426;2023-05-07T10:01:35;15.40;;;13.73;;
49730;SDS011;35622;52.008;5.426;2023-05-07T10:04:02;13.75;;;11.15;;
49730;SDS011;35622;52.008;5.426;2023-05-07T10:06:33;14.35;;;12.82;;
49730;SDS011;35622;52.008;5.426;2023-05-07T10:08:59;15.23;;;13.63;;
49730;SDS011;35622;52.008;5.426;2023-05-07T10:11:25;14.45;;;13.00;;
49730;SDS011;35622;52.008;5.426;2023-05-07T10:13:52;12.75;;;11.45;;
49730;SDS011;35622;52.008;5.426;2023-05-07T10:16:18;14.48;;;12.90;;
49730;SDS011;35622;52.008;5.426;2023-05-07T10:18:44;14.30;;;11.93;;
49730;SDS011;35622;52.008;5.426;2023-05-07T10:21:11;13.43;;;12.02;;
49730;SDS011;35622;52.008;5.426;2023-05-07T10:23:41;11.38;;;9.13;;
49730;SDS011;35622;52.008;5.426;2023-05-07T10:26:11;14.35;;;12.70;;
49730;SDS011;35622;52.008;5.426;2023-05-07T10:28:39;14.20;;;12.27;;
49730;SDS011;35622;52.008;5.426;2023-05-07T10:33:58;13.65;;;11.65;;
49730;SDS011;35622;52.008;5.426;2023-05-07T10:36:26;13.65;;;11.55;;
49730;SDS011;35622;52.008;5.426;2023-05-07T10:38:52;13.02;;;11.68;;
49730;SDS011;35622;52.008;5.426;2023-05-07T10:41:19;12.23;;;10.60;;
49730;SDS011;35622;52.008;5.426;2023-05-07T10:43:45;11.55;;;10.35;;
49730;SDS011;35622;52.008;5.426;2023-05-07T10:46:21;9.00;;;8.10;;
49730;SDS011;35622;52.008;5.426;2023-05-07T10:51:28;11.27;;;10.00;;
49730;SDS011;35622;52.008;5.426;2023-05-07T10:54:29;10.70;;;9.07;;
49730;SDS011;35622;52.008;5.426;2023-05-07T10:56:48;14.85;;;12.10;;
49730;SDS011;35622;52.008;5.426;2023-05-07T11:04:28;11.27;;;9.20;;
49730;SDS011;35622;52.008;5.426;2023-05-07T11:15:04;8.95;;;7.68;;
49730;SDS011;35622;52.008;5.426;2023-05-07T11:17:54;10.07;;;8.07;;
49730;SDS011;35622;52.008;5.426;2023-05-07T11:26:02;8.25;;;4.72;;
49730;SDS011;35622;52.008;5.426;2023-05-07T11:28:30;7.85;;;6.25;;
49730;SDS011;35622;52.008;5.426;2023-05-07T11:30:56;8.00;;;6.57;;
49730;SDS011;35622;52.008;5.426;2023-05-07T11:33:23;8.02;;;5.80;;
49730;SDS011;35622;52.008;5.426;2023-05-07T11:35:50;8.93;;;6.03;;
49730;SDS011;35622;52.008;5.426;2023-05-07T11:38:18;8.15;;;4.80;;
49730;SDS011;35622;52.008;5.426;2023-05-07T11:40:50;5.78;;;3.90;;
49730;SDS011;35622;52.008;5.426;2023-05-07T11:43:17;4.10;;;2.83;;
49730;SDS011;35622;52.008;5.426;2023-05-07T11:45:42;5.72;;;3.00;;
49730;SDS011;35622;52.008;5.426;2023-05-07T11:48:10;3.95;;;2.90;;
49730;SDS011;35622;52.008;5.426;2023-05-07T11:50:49;6.80;;;3.10;;
49730;SDS011;35622;52.008;5.426;2023-05-07T11:53:25;7.15;;;4.00;;
49730;SDS011;35622;52.008;5.426;2023-05-07T11:55:57;7.38;;;3.80;;
49730;SDS011;35622;52.008;5.426;2023-05-07T11:58:23;4.35;;;3.05;;
49730;SDS011;35622;52.008;5.426;2023-05-07T12:00:53;6.30;;;3.30;;
49730;SDS011;35622;52.008;5.426;2023-05-07T12:03:19;6.78;;;4.63;;
49730;SDS011;35622;52.008;5.426;2023-05-07T12:05:46;4.95;;;4.10;;
49730;SDS011;35622;52.008;5.426;2023-05-07T12:08:15;5.88;;;4.00;;
49730;SDS011;35622;52.008;5.426;2023-05-07T12:10:46;5.78;;;3.28;;
49730;SDS011;35622;52.008;5.426;2023-05-07T12:13:14;6.95;;;3.28;;
49730;SDS011;35622;52.008;5.426;2023-05-07T12:15:40;4.95;;;3.35;;
49730;SDS011;35622;52.008;5.426;2023-05-07T12:18:07;6.05;;;3.92;;
49730;SDS011;35622;52.008;5.426;2023-05-07T12:20:33;4.78;;;2.80;;
49730;SDS011;35622;52.008;5.426;2023-05-07T12:23:00;6.55;;;3.67;;
49730;SDS011;35622;52.008;5.426;2023-05-07T12:25:26;5.07;;;3.40;;
49730;SDS011;35622;52.008;5.426;2023-05-07T12:27:54;6.85;;;4.05;;
49730;SDS011;35622;52.008;5.426;2023-05-07T12:30:21;7.43;;;4.20;;
49730;SDS011;35622;52.008;5.426;2023-05-07T12:32:47;7.15;;;4.03;;
49730;SDS011;35622;52.008;5.426;2023-05-07T12:35:25;5.93;;;3.80;;
49730;SDS011;35622;52.008;5.426;2023-05-07T12:38:12;6.30;;;4.00;;
49730;SDS011;35622;52.008;5.426;2023-05-07T12:40:46;7.35;;;4.82;;
49730;SDS011;35622;52.008;5.426;2023-05-07T12:43:19;4.22;;;2.80;;
49730;SDS011;35622;52.008;5.426;2023-05-07T12:45:49;4.72;;;4.10;;
49730;SDS011;35622;52.008;5.426;2023-05-07T12:48:15;5.57;;;3.80;;
49730;SDS011;35622;52.008;5.426;2023-05-07T12:50:41;6.97;;;4.05;;
49730;SDS011;35622;52.008;5.426;2023-05-07T12:53:08;5.40;;;3.67;;
49730;SDS011;35622;52.008;5.426;2023-05-07T12:55:46;6.07;;;3.55;;
49730;SDS011;35622;52.008;5.426;2023-05-07T12:58:16;7.70;;;4.53;;
49730;SDS011;35622;52.008;5.426;2023-05-07T13:00:43;8.32;;;5.10;;
49730;SDS011;35622;52.008;5.426;2023-05-07T13:03:10;7.68;;;4.55;;
49730;SDS011;35622;52.008;5.426;2023-05-07T13:05:36;5.45;;;3.78;;
49730;SDS011;35622;52.008;5.426;2023-05-07T13:08:02;5.80;;;4.50;;
49730;SDS011;35622;52.008;5.426;2023-05-07T13:10:27;5.95;;;3.45;;
49730;SDS011;35622;52.008;5.426;2023-05-07T13:12:53;6.55;;;5.60;;
49730;SDS011;35622;52.008;5.426;2023-05-07T13:15:19;7.18;;;5.18;;
49730;SDS011;35622;52.008;5.426;2023-05-07T13:17:45;7.32;;;5.97;;
49730;SDS011;35622;52.008;5.426;2023-05-07T13:20:11;7.78;;;6.22;;
49730;SDS011;35622;52.008;5.426;2023-05-07T13:22:37;7.50;;;4.80;;
49730;SDS011;35622;52.008;5.426;2023-05-07T13:25:04;7.10;;;4.63;;
49730;SDS011;35622;52.008;5.426;2023-05-07T13:27:30;8.50;;;5.88;;
49730;SDS011;35622;52.008;5.426;2023-05-07T13:29:55;6.15;;;4.82;;
49730;SDS011;35622;52.008;5.426;2023-05-07T13:32:21;7.00;;;5.68;;
49730;SDS011;35622;52.008;5.426;2023-05-07T13:34:47;7.60;;;5.72;;
49730;SDS011;35622;52.008;5.426;2023-05-07T13:37:12;6.63;;;5.28;;
49730;SDS011;35622;52.008;5.426;2023-05-07T13:39:38;7.25;;;4.78;;
49730;SDS011;35622;52.008;5.426;2023-05-07T13:42:04;5.57;;;4.03;;
49730;SDS011;35622;52.008;5.426;2023-05-07T13:44:39;6.18;;;4.41;;
49730;SDS011;35622;52.008;5.426;2023-05-07T13:47:05;5.32;;;4.20;;
49730;SDS011;35622;52.008;5.426;2023-05-07T13:49:31;11.57;;;8.40;;
49730;SDS011;35622;52.008;5.426;2023-05-07T13:51:56;12.38;;;10.57;;
49730;SDS011;35622;52.008;5.426;2023-05-07T13:54:22;12.20;;;10.50;;
49730;SDS011;35622;52.008;5.426;2023-05-07T13:56:47;12.35;;;11.05;;
49730;SDS011;35622;52.008;5.426;2023-05-07T13:59:13;14.13;;;12.65;;
49730;SDS011;35622;52.008;5.426;2023-05-07T14:01:40;13.40;;;11.98;;
49730;SDS011;35622;52.008;5.426;2023-05-07T14:04:06;15.85;;;12.85;;
49730;SDS011;35622;52.008;5.426;2023-05-07T14:06:41;11.13;;;9.76;;
49730;SDS011;35622;52.008;5.426;2023-05-07T14:09:07;13.70;;;11.13;;
49730;SDS011;35622;52.008;5.426;2023-05-07T14:11:32;12.68;;;10.88;;
49730;SDS011;35622;52.008;5.426;2023-05-07T14:13:58;11.73;;;10.52;;
49730;SDS011;35622;52.008;5.426;2023-05-07T14:16:23;8.63;;;7.20;;
49730;SDS011;35622;52.008;5.426;2023-05-07T14:18:49;10.82;;;9.25;;
49730;SDS011;35622;52.008;5.426;2023-05-07T14:21:15;10.20;;;8.85;;
49730;SDS011;35622;52.008;5.426;2023-05-07T14:23:40;11.38;;;10.15;;
49730;SDS011;35622;52.008;5.426;2023-05-07T14:26:06;13.13;;;11.77;;
49730;SDS011;35622;52.008;5.426;2023-05-07T14:28:32;13.63;;;11.73;;
49730;SDS011;35622;52.008;5.426;2023-05-07T14:30:57;12.82;;;11.25;;
49730;SDS011;35622;52.008;5.426;2023-05-07T14:33:23;15.88;;;12.10;;
49730;SDS011;35622;52.008;5.426;2023-05-07T14:35:49;12.57;;;10.95;;
49730;SDS011;35622;52.008;5.426;2023-05-07T14:38:15;16.02;;;14.43;;
49730;SDS011;35622;52.008;5.426;2023-05-07T14:40:40;14.73;;;12.70;;
49730;SDS011;35622;52.008;5.426;2023-05-07T14:43:06;17.58;;;13.70;;
49730;SDS011;35622;52.008;5.426;2023-05-07T14:45:32;14.95;;;11.55;;
49730;SDS011;35622;52.008;5.426;2023-05-07T14:47:57;16.05;;;14.38;;
49730;SDS011;35622;52.008;5.426;2023-05-07T14:50:23;18.67;;;15.85;;
49730;SDS011;35622;52.008;5.426;2023-05-07T14:52:49;18.13;;;15.98;;
49730;SDS011;35622;52.008;5.426;2023-05-07T14:55:14;17.95;;;14.55;;
49730;SDS011;35622;52.008;5.426;2023-05-07T14:57:40;19.08;;;16.30;;
49730;SDS011;35622;52.008;5.426;2023-05-07T15:00:05;20.10;;;16.15;;
49730;SDS011;35622;52.008;5.426;2023-05-07T15:02:32;16.90;;;14.98;;